Time;durP1;ratioP1;P1;durP2;ratioP2;P2;SDS_P1;SDS_P2;PMS_P1;PMS_P2;Temp;Humidity;BMP_temperature;BMP_pressure;BME280_temperature;BME280_humidity;BME280_pressure;Samples;Min_cycle;Max_cycle;Signal;HPM_P1;HPM_P2
2022/12/13 00:00:43;;;;;;;11.33;8.10;;;;;;;-7.10;100.00;99784.94;5034231;28;20114;-67
2022/12/13 00:03:09;;;;;;;11.60;7.73;;;;;;;-7.04;100.00;99780.31;5034159;28;20091;-66
2022/12/13 00:05:41;;;;;;;12.50;8.83;;;;;;;-7.09;100.00;99763.34;5034248;28;20065;-67
2022/12/13 00:08:06;;;;;;;12.63;9.10;;;;;;;-7.07;100.00;99775.28;5034535;28;20116;-66
2022/12/13 00:10:32;;;;;;;13.47;7.80;;;;;;;-7.10;100.00;99769.44;5034206;28;20128;-66
2022/12/13 00:12:57;;;;;;;13.43;7.70;;;;;;;-7.08;100.00;99772.78;5016233;28;20033;-67
2022/12/13 00:15:23;;;;;;;14.50;9.40;;;;;;;-7.03;100.00;99781.13;5016015;28;20033;-67
2022/12/13 00:17:49;;;;;;;11.33;8.60;;;;;;;-7.03;100.00;99794.09;5033683;28;20025;-67
2022/12/13 00:20:14;;;;;;;14.67;9.67;;;;;;;-7.00;100.00;99796.50;5012486;28;20052;-67
2022/12/13 00:22:40;;;;;;;12.83;9.20;;;;;;;-7.03;100.00;99800.09;5013863;28;20034;-68
2022/12/13 00:25:06;;;;;;;11.73;8.37;;;;;;;-7.01;100.00;99800.03;5013852;28;20026;-67
2022/12/13 00:27:31;;;;;;;17.83;10.27;;;;;;;-6.96;100.00;99798.88;5014146;28;20117;-68
2022/12/13 00:29:57;;;;;;;12.43;8.63;;;;;;;-6.84;100.00;99802.63;5013727;28;20038;-66
2022/12/13 00:32:22;;;;;;;13.57;7.93;;;;;;;-6.81;100.00;99792.09;5013962;28;20517;-66
2022/12/13 00:34:48;;;;;;;16.90;10.07;;;;;;;-6.82;100.00;99800.78;5013673;28;20049;-66
2022/12/13 00:37:13;;;;;;;15.67;9.80;;;;;;;-6.86;100.00;99791.50;5014019;28;20128;-66
2022/12/13 00:39:39;;;;;;;17.87;9.27;;;;;;;-6.89;100.00;99789.06;5014248;28;20030;-67
2022/12/13 00:42:04;;;;;;;22.90;10.83;;;;;;;-6.94;100.00;99793.63;5013664;28;20513;-67
2022/12/13 00:44:30;;;;;;;15.40;9.50;;;;;;;-6.91;100.00;99811.63;5014331;28;20373;-66
2022/12/13 00:46:56;;;;;;;18.10;9.83;;;;;;;-6.80;100.00;99804.13;5014459;28;20036;-67
2022/12/13 00:49:22;;;;;;;15.90;10.27;;;;;;;-6.76;100.00;99805.66;5014018;28;20030;-67
2022/12/13 00:51:48;;;;;;;17.73;11.07;;;;;;;-6.76;100.00;99803.06;5014604;28;20447;-67
2022/12/13 00:54:14;;;;;;;20.20;12.10;;;;;;;-6.71;100.00;99802.84;5012664;28;20482;-66
2022/12/13 00:56:40;;;;;;;16.42;10.82;;;;;;;-6.68;100.00;99811.28;5011994;28;20069;-67
2022/12/13 00:59:06;;;;;;;31.57;11.63;;;;;;;-6.68;100.00;99795.75;5014273;28;20022;-68
2022/12/13 01:01:33;;;;;;;18.70;11.73;;;;;;;-6.59;100.00;99799.63;5013921;28;20033;-66
2022/12/13 01:04:02;;;;;;;21.75;11.85;;;;;;;-6.52;100.00;99807.94;5013274;28;20022;-66
2022/12/13 01:06:44;;;;;;;;;;;;;;;-6.49;100.00;99816.38;5012410;28;20076;-67
2022/12/13 01:09:19;;;;;;;23.33;10.75;;;;;;;-6.65;100.00;99787.84;5013333;28;19910;-67
2022/12/13 01:11:45;;;;;;;19.25;11.82;;;;;;;-6.53;100.00;99780.34;5013261;28;20469;-67
2022/12/13 01:14:11;;;;;;;16.98;10.70;;;;;;;-6.57;100.00;99801.22;5013230;28;20017;-67
2022/12/13 01:16:37;;;;;;;21.97;13.30;;;;;;;-6.60;100.00;99806.56;5013311;28;20044;-67
2022/12/13 01:19:03;;;;;;;20.58;11.57;;;;;;;-6.57;100.00;99806.41;5017875;28;20050;-67
2022/12/13 01:21:29;;;;;;;21.83;12.15;;;;;;;-6.57;100.00;99803.81;5032940;28;20037;-66
2022/12/13 01:24:00;;;;;;;21.10;13.50;;;;;;;-6.55;100.00;99801.16;5032858;28;20362;-66
2022/12/13 01:26:26;;;;;;;22.10;14.60;;;;;;;-6.57;100.00;99805.56;5032973;28;20034;-66
2022/12/13 01:28:52;;;;;;;25.10;12.20;;;;;;;-6.61;100.00;99798.88;5032615;28;20033;-66
2022/12/13 01:31:19;;;;;;;28.47;15.00;;;;;;;-6.60;100.00;99791.03;5032907;28;20069;-67
2022/12/13 01:33:45;;;;;;;23.25;13.27;;;;;;;-6.59;100.00;99802.22;5034685;28;20025;-66
2022/12/13 01:36:14;;;;;;;19.23;11.77;;;;;;;-6.56;100.00;99804.66;5035117;28;20025;-67
2022/12/13 01:38:39;;;;;;;21.50;11.05;;;;;;;-6.56;100.00;99786.53;5039556;28;20033;-66
2022/12/13 01:41:05;;;;;;;22.60;14.10;;;;;;;-6.51;100.00;99783.69;5019215;28;20041;-68
2022/12/13 01:43:30;;;;;;;18.63;12.47;;;;;;;-6.47;100.00;99800.75;5032478;28;20025;-67
2022/12/13 01:45:56;;;;;;;18.47;12.37;;;;;;;-6.43;100.00;99800.50;5032364;28;20364;-67
2022/12/13 01:48:27;;;;;;;22.43;13.27;;;;;;;-6.38;100.00;99785.56;5032544;28;20032;-67
2022/12/13 01:50:58;;;;;;;19.92;11.50;;;;;;;-6.38;100.00;99782.13;5032280;28;20025;-67
2022/12/13 01:53:29;;;;;;;27.70;12.52;;;;;;;-6.41;100.00;99784.88;5032478;28;20049;-67
2022/12/13 01:55:59;;;;;;;22.90;12.93;;;;;;;-6.35;100.00;99800.13;5032113;28;20373;-67
2022/12/13 01:58:25;;;;;;;20.65;12.27;;;;;;;-6.35;100.00;99787.19;5033466;28;20478;-66
2022/12/13 02:00:51;;;;;;;21.17;12.18;;;;;;;-6.34;100.00;99799.22;5033263;28;20457;-67
2022/12/13 02:03:20;;;;;;;20.80;11.90;;;;;;;-6.56;100.00;99765.81;5033080;28;20083;-66
2022/12/13 02:06:19;;;;;;;21.05;13.10;;;;;;;-6.35;100.00;99792.38;5033165;28;20021;-66
2022/12/13 02:08:45;;;;;;;23.98;13.13;;;;;;;-6.21;100.00;99802.84;5022814;28;20033;-68
2022/12/13 02:11:12;;;;;;;18.58;12.65;;;;;;;-6.20;100.00;99799.31;5032032;28;20029;-67
2022/12/13 02:13:37;;;;;;;24.48;13.10;;;;;;;-6.23;100.00;99791.72;5032029;28;20033;-66
2022/12/13 02:16:12;;;;;;;21.40;14.27;;;;;;;-6.18;100.00;99812.19;5032001;28;20035;-67
2022/12/13 02:18:47;;;;;;;27.67;14.35;;;;;;;-6.13;100.00;99805.00;5031942;28;20036;-67
2022/12/13 02:21:20;;;;;;;23.52;13.05;;;;;;;-6.10;100.00;99803.09;5031959;28;20037;-68
2022/12/13 02:24:14;;;;;;;21.92;13.23;;;;;;;-5.98;100.00;99810.25;5032147;28;20037;-66
2022/12/13 02:26:39;;;;;;;26.40;13.45;;;;;;;-5.99;100.00;99798.19;5032255;28;20029;-66
2022/12/13 02:29:41;;;;;;;18.70;13.17;;;;;;;-5.96;100.00;99811.00;5031892;28;20060;-66
2022/12/13 02:32:27;;;;;;;20.88;13.25;;;;;;;-6.02;100.00;99803.53;5033018;28;20030;-67
2022/12/13 02:35:06;;;;;;;21.90;13.60;;;;;;;-6.05;100.00;99816.66;5032886;28;20500;-67
2022/12/13 02:37:58;;;;;;;23.52;13.60;;;;;;;-5.99;100.00;99811.16;5032768;28;20025;-67
2022/12/13 02:40:33;;;;;;;20.63;13.38;;;;;;;-6.01;100.00;99810.41;5032420;28;20048;-67
2022/12/13 02:43:31;;;;;;;22.95;13.02;;;;;;;-6.03;100.00;99829.56;5032405;28;20033;-67
2022/12/13 02:45:59;;;;;;;21.00;11.18;;;;;;;-5.97;100.00;99817.09;4999215;28;20037;-67
2022/12/13 02:48:29;;;;;;;23.88;15.18;;;;;;;-5.90;100.00;99811.56;5032118;28;20116;-67
2022/12/13 02:50:57;;;;;;;30.75;14.55;;;;;;;-5.90;100.00;99825.38;5031634;28;20049;-66
2022/12/13 02:53:24;;;;;;;21.10;13.02;;;;;;;-5.93;100.00;99805.63;5031523;28;20453;-66
2022/12/13 02:55:50;;;;;;;24.75;14.48;;;;;;;-5.84;100.00;99814.63;5031570;28;20040;-66
2022/12/13 02:58:22;;;;;;;22.73;14.33;;;;;;;-5.76;100.00;99811.66;5031708;28;20025;-67
2022/12/13 03:01:00;;;;;;;22.38;11.98;;;;;;;-5.77;100.00;99804.78;5031585;28;20351;-67
2022/12/13 03:03:55;;;;;;;24.55;12.30;;;;;;;-5.67;100.00;99813.75;5031757;28;20029;-66
2022/12/13 03:06:35;;;;;;;17.88;12.20;;;;;;;-5.61;100.00;99818.59;5031657;28;20109;-65
2022/12/13 03:09:23;;;;;;;19.67;12.75;;;;;;;-5.63;100.00;99810.06;5031581;28;20505;-66
2022/12/13 03:15:29;;;;;;;21.88;10.50;;;;;;;-5.56;100.00;99790.63;5031731;28;20033;-69
2022/12/13 03:18:14;;;;;;;12.70;9.88;;;;;;;-5.58;100.00;99787.28;5032209;28;20042;-67
2022/12/13 03:20:59;;;;;;;19.25;11.43;;;;;;;-5.57;100.00;99794.16;5034834;28;20206;-66
2022/12/13 03:23:25;;;;;;;20.02;13.23;;;;;;;-5.51;100.00;99795.56;5041111;28;20061;-68
2022/12/13 03:26:25;;;;;;;21.00;11.02;;;;;;;-5.45;100.00;99792.66;5017946;28;20036;-67
2022/12/13 03:28:51;;;;;;;18.17;11.10;;;;;;;-5.45;100.00;99792.66;4992492;28;20080;-66
2022/12/13 03:31:18;;;;;;;23.27;12.10;;;;;;;-5.47;100.00;99795.34;5035285;28;20496;-68
2022/12/13 03:33:43;;;;;;;17.45;10.20;;;;;;;-5.52;100.00;99786.94;5035539;28;20029;-65
2022/12/13 03:36:11;;;;;;;19.17;11.93;;;;;;;-5.45;100.00;99798.69;5035444;28;20048;-66
2022/12/13 03:38:38;;;;;;;22.95;11.65;;;;;;;-5.49;100.00;99792.00;5035390;28;20036;-66
2022/12/13 03:41:14;;;;;;;19.10;10.90;;;;;;;-5.47;100.00;99784.97;5034440;28;20037;-66
2022/12/13 03:43:39;;;;;;;19.25;12.57;;;;;;;-5.47;100.00;99779.78;5034689;28;20104;-67
2022/12/13 03:46:09;;;;;;;19.03;10.63;;;;;;;-5.46;100.00;99784.03;5034076;28;20117;-69
2022/12/13 03:48:34;;;;;;;16.42;11.23;;;;;;;-5.43;100.00;99786.47;5034120;28;20033;-67
2022/12/13 03:51:01;;;;;;;17.10;10.93;;;;;;;-5.37;100.00;99774.88;5034352;28;20040;-67
2022/12/13 03:53:27;;;;;;;16.65;10.40;;;;;;;-5.33;100.00;99787.59;5034348;28;20033;-66
2022/12/13 03:55:53;;;;;;;23.13;14.13;;;;;;;-5.36;100.00;99780.00;5034362;28;20033;-70
2022/12/13 03:58:19;;;;;;;18.07;12.10;;;;;;;-5.37;100.00;99786.09;5016523;28;20032;-66
2022/12/13 04:00:45;;;;;;;22.88;12.35;;;;;;;-5.32;100.00;99778.91;5034004;28;20469;-69
2022/12/13 04:03:10;;;;;;;18.03;12.20;;;;;;;-5.32;100.00;99784.09;5033867;28;20120;-73
2022/12/13 04:05:36;;;;;;;21.33;12.07;;;;;;;-5.27;100.00;99791.59;5038216;28;20021;-69
2022/12/13 04:08:01;;;;;;;20.07;12.30;;;;;;;-5.25;100.00;99781.13;5034327;28;20029;-71
2022/12/13 04:10:27;;;;;;;21.10;11.93;;;;;;;-5.31;100.00;99780.56;5033645;28;20061;-70
2022/12/13 04:15:37;;;;;;;24.15;13.52;;;;;;;-5.33;100.00;99791.97;5033993;28;20029;-72
2022/12/13 04:18:03;;;;;;;27.43;12.23;;;;;;;-5.34;100.00;99778.16;5034003;28;20479;-68
2022/12/13 04:20:35;;;;;;;21.57;12.23;;;;;;;-5.27;100.00;99788.16;5033819;28;20046;-68
2022/12/13 04:23:00;;;;;;;17.90;11.23;;;;;;;-5.23;100.00;99776.69;5034300;28;20041;-67
2022/12/13 04:25:26;;;;;;;17.77;11.47;;;;;;;-5.24;100.00;99777.63;5033967;28;20040;-69
2022/12/13 04:27:51;;;;;;;21.87;13.27;;;;;;;-5.21;100.00;99783.47;5016109;28;20025;-67
2022/12/13 04:30:17;;;;;;;19.83;12.77;;;;;;;-5.23;100.00;99776.69;5033525;28;20465;-69
2022/12/13 04:32:42;;;;;;;24.53;11.90;;;;;;;-5.33;100.00;99766.84;5033678;28;20052;-71
2022/12/13 04:35:08;;;;;;;20.17;11.50;;;;;;;-5.21;100.00;99780.03;5034602;28;20038;-71
2022/12/13 04:37:33;;;;;;;21.30;11.80;;;;;;;-5.15;100.00;99779.72;5033973;28;20384;-70
2022/12/13 04:39:59;;;;;;;24.73;12.57;;;;;;;-5.11;100.00;99781.22;5034264;28;20025;-68
2022/12/13 04:42:24;;;;;;;24.87;14.20;;;;;;;-5.08;100.00;99768.88;5016106;28;20159;-69
2022/12/13 04:44:50;;;;;;;25.00;14.90;;;;;;;-5.05;100.00;99773.06;5015572;28;20037;-71
2022/12/13 04:47:15;;;;;;;21.37;13.07;;;;;;;-5.03;100.00;99779.00;4999676;28;20072;-69
2022/12/13 04:49:41;;;;;;;22.70;12.70;;;;;;;-5.00;100.00;99769.25;5033691;28;20076;-69
2022/12/13 04:52:06;;;;;;;22.10;13.47;;;;;;;-5.00;100.00;99761.47;5031180;28;20534;-69
2022/12/13 04:54:32;;;;;;;23.27;12.60;;;;;;;-4.97;100.00;99757.03;5031655;28;20032;-68
2022/12/13 04:56:59;;;;;;;17.70;12.20;;;;;;;-5.00;100.00;99752.84;5012752;28;20377;-69
2022/12/13 04:59:25;;;;;;;21.43;13.27;;;;;;;-5.29;100.00;99705.22;5012805;28;20041;-70
2022/12/13 05:01:50;;;;;;;23.30;11.90;;;;;;;-5.04;100.00;99751.34;5013243;28;20034;-69
2022/12/13 05:04:16;;;;;;;20.77;13.23;;;;;;;-5.12;100.00;99732.81;5013429;28;20033;-66
2022/12/13 05:06:41;;;;;;;23.17;12.43;;;;;;;-5.01;100.00;99753.78;5013288;28;20026;-68
2022/12/13 05:09:10;;;;;;;19.50;11.87;;;;;;;-5.03;100.00;99743.47;5013141;28;20041;-71
2022/12/13 05:11:35;;;;;;;19.27;12.43;;;;;;;-4.89;100.00;99758.28;5013180;28;20022;-73
2022/12/13 05:14:01;;;;;;;25.60;13.30;;;;;;;-4.86;100.00;99758.09;5013325;28;20033;-71
2022/12/13 05:16:27;;;;;;;20.88;13.23;;;;;;;-4.80;100.00;99765.53;5013231;28;20091;-74
2022/12/13 05:18:54;;;;;;;23.73;11.93;;;;;;;-4.89;100.00;99744.47;5013112;28;20049;-70
2022/12/13 05:21:19;;;;;;;18.52;13.43;;;;;;;-4.81;100.00;99753.47;5013011;28;20041;-72
2022/12/13 05:23:45;;;;;;;19.63;13.83;;;;;;;-4.77;100.00;99764.50;5012864;28;20378;-71
2022/12/13 05:26:10;;;;;;;23.97;13.73;;;;;;;-4.69;100.00;99770.91;5011845;28;20466;-70
2022/12/13 05:28:35;;;;;;;19.77;11.23;;;;;;;-4.65;100.00;99757.72;5012973;28;20030;-69
2022/12/13 05:31:09;;;;;;;18.90;11.73;;;;;;;-4.64;100.00;99759.41;5012015;28;20058;-71
2022/12/13 05:33:35;;;;;;;21.02;11.98;;;;;;;-4.65;100.00;99758.56;5014595;28;20072;-72
2022/12/13 05:36:01;;;;;;;17.17;11.57;;;;;;;-4.56;100.00;99770.19;5013479;28;20166;-70
2022/12/13 05:38:27;;;;;;;19.65;12.40;;;;;;;-4.60;100.00;99761.75;5013259;28;20030;-69
2022/12/13 05:40:53;;;;;;;20.43;11.53;;;;;;;-4.50;100.00;99773.25;5012487;28;20076;-72
2022/12/13 05:43:18;;;;;;;19.10;10.90;;;;;;;-4.53;100.00;99767.41;4995675;28;20733;-72
2022/12/13 05:45:45;;;;;;;18.00;10.87;;;;;;;-4.58;100.00;99764.25;5014145;28;20100;-73
2022/12/13 05:48:10;;;;;;;17.23;11.45;;;;;;;-4.73;100.00;99756.44;5011459;28;20033;-72
2022/12/13 05:50:37;;;;;;;17.43;11.67;;;;;;;-4.77;100.00;99765.34;5033660;28;20087;-69
2022/12/13 05:53:03;;;;;;;23.88;13.95;;;;;;;-4.86;100.00;99760.69;5035988;28;20492;-69
2022/12/13 05:55:32;;;;;;;21.38;12.95;;;;;;;-4.78;100.00;99763.66;5017473;28;20025;-68
2022/12/13 05:57:59;;;;;;;23.73;15.38;;;;;;;-4.61;100.00;99767.88;5050684;28;20131;-71
2022/12/13 06:00:27;;;;;;;18.63;11.67;;;;;;;-4.56;100.00;99758.03;5055292;28;20041;-66
2022/12/13 06:02:54;;;;;;;19.48;10.35;;;;;;;-4.43;100.00;99760.72;5049796;28;20029;-68
2022/12/13 06:05:19;;;;;;;21.70;12.70;;;;;;;-4.41;100.00;99758.88;5036439;28;20163;-69
2022/12/13 06:07:45;;;;;;;19.37;11.47;;;;;;;-4.33;100.00;99758.44;5032647;28;20108;-68
2022/12/13 06:10:11;;;;;;;17.07;11.10;;;;;;;-4.30;100.00;99760.84;5031593;28;20029;-69
2022/12/13 06:12:37;;;;;;;16.97;11.60;;;;;;;-4.26;100.00;99781.34;5032315;28;20029;-72
2022/12/13 06:15:04;;;;;;;18.33;12.35;;;;;;;-4.25;100.00;99777.00;5031069;28;20018;-68
2022/12/13 06:17:35;;;;;;;18.90;11.88;;;;;;;-4.22;100.00;99772.44;5032238;28;20033;-69
2022/12/13 06:20:04;;;;;;;15.90;10.82;;;;;;;-4.16;100.00;99766.84;5032055;28;20048;-70
2022/12/13 06:22:30;;;;;;;16.35;11.40;;;;;;;-4.19;100.00;99769.66;5031846;28;20121;-67
2022/12/13 06:24:56;;;;;;;21.23;13.27;;;;;;;-4.18;100.00;99768.72;5031824;28;20517;-71
2022/12/13 06:27:21;;;;;;;15.00;9.53;;;;;;;-4.54;100.00;99716.38;5032230;28;20034;-67
2022/12/13 06:29:49;;;;;;;17.80;10.82;;;;;;;-4.25;100.00;99759.63;5031797;28;20035;-69
2022/12/13 06:32:15;;;;;;;15.33;9.97;;;;;;;-4.20;100.00;99759.34;5034541;28;20029;-67
2022/12/13 06:34:40;;;;;;;15.53;10.10;;;;;;;-4.19;100.00;99772.25;5027509;28;20025;-68
2022/12/13 06:37:09;;;;;;;13.90;9.70;;;;;;;-4.15;100.00;99762.50;5041173;28;20136;-67
2022/12/13 06:39:35;;;;;;;18.70;9.98;;;;;;;-4.15;100.00;99762.50;5037462;28;20021;-69
2022/12/13 06:42:05;;;;;;;14.03;10.33;;;;;;;-4.10;100.00;99760.44;5032829;28;20081;-68
2022/12/13 06:44:31;;;;;;;16.77;12.13;;;;;;;-4.17;100.00;99766.94;5032082;28;20021;-69
2022/12/13 06:46:57;;;;;;;11.88;8.40;;;;;;;-4.17;100.00;99756.56;5031813;28;20037;-70
2022/12/13 06:49:22;;;;;;;13.65;9.77;;;;;;;-4.15;100.00;99760.72;5030627;28;20033;-70
2022/12/13 06:51:48;;;;;;;14.97;8.73;;;;;;;-4.23;100.00;99760.38;5032125;28;20033;-69
2022/12/13 06:54:13;;;;;;;12.13;8.53;;;;;;;-4.27;100.00;99763.25;5033894;28;20049;-68
2022/12/13 06:56:39;;;;;;;11.47;7.67;;;;;;;-4.34;100.00;99761.94;5035135;28;20036;-69
2022/12/13 06:59:04;;;;;;;12.13;9.13;;;;;;;-4.39;100.00;99764.81;5040174;28;20091;-67
2022/12/13 07:01:30;;;;;;;13.13;8.63;;;;;;;-4.43;100.00;99778.91;5044108;28;20033;-68
2022/12/13 07:03:56;;;;;;;13.60;8.00;;;;;;;-4.60;100.00;99755.72;5040630;28;20119;-70
2022/12/13 07:06:24;;;;;;;12.70;8.63;;;;;;;-4.57;100.00;99771.13;5035306;28;20034;-70
2022/12/13 07:08:52;;;;;;;11.40;8.98;;;;;;;-4.71;100.00;99757.19;5035095;28;20062;-72
2022/12/13 07:11:20;;;;;;;11.20;7.60;;;;;;;-4.71;100.00;99772.75;5035301;28;20112;-69
2022/12/13 07:13:46;;;;;;;12.27;8.10;;;;;;;-4.71;100.00;99775.34;5033827;28;20094;-70
2022/12/13 07:16:12;;;;;;;10.13;7.33;;;;;;;-4.65;100.00;99768.13;5035274;28;20124;-70
2022/12/13 07:18:41;;;;;;;13.27;9.85;;;;;;;-4.53;100.00;99777.81;5017100;28;20021;-72
2022/12/13 07:21:11;;;;;;;14.07;8.68;;;;;;;-4.43;100.00;99768.53;5017953;28;20481;-70
2022/12/13 07:24:02;;;;;;;12.45;9.23;;;;;;;-4.39;100.00;99759.63;5035611;28;20051;-71
2022/12/13 07:26:27;;;;;;;11.00;7.47;;;;;;;-4.37;100.00;99760.34;5017337;28;20029;-72
2022/12/13 07:28:56;;;;;;;12.37;7.67;;;;;;;-4.31;100.00;99756.56;5017209;28;20029;-74
2022/12/13 07:31:25;;;;;;;13.55;8.38;;;;;;;-4.24;100.00;99763.91;5034644;28;20410;-69
2022/12/13 07:33:51;;;;;;;11.70;8.82;;;;;;;-4.23;100.00;99757.75;5034786;28;20389;-70
2022/12/13 07:36:19;;;;;;;10.50;7.90;;;;;;;-4.26;100.00;99759.72;5033748;28;20036;-68
2022/12/13 07:38:51;;;;;;;13.55;8.73;;;;;;;-4.24;100.00;99757.88;5034732;28;20048;-69
2022/12/13 07:41:16;;;;;;;13.25;9.45;;;;;;;-4.21;100.00;99768.06;5034660;28;20056;-68
2022/12/13 07:43:42;;;;;;;21.80;10.77;;;;;;;-4.19;100.00;99748.00;5034486;28;20057;-69
2022/12/13 07:46:10;;;;;;;12.87;8.33;;;;;;;-4.11;100.00;99763.97;5034378;28;20021;-70
2022/12/13 07:48:35;;;;;;;13.05;9.57;;;;;;;-4.12;100.00;99768.34;5016595;28;20058;-70
2022/12/13 07:51:04;;;;;;;13.97;8.57;;;;;;;-4.07;100.00;99762.84;5016724;28;20408;-69
2022/12/13 07:53:29;;;;;;;11.18;7.93;;;;;;;-4.11;100.00;99753.56;5033330;28;20032;-70
2022/12/13 07:55:55;;;;;;;15.73;9.87;;;;;;;-4.12;100.00;99750.13;5034572;28;20389;-68
2022/12/13 07:58:21;;;;;;;15.87;9.80;;;;;;;-4.07;100.00;99755.88;5034640;28;20108;-71
2022/12/13 08:00:47;;;;;;;15.90;10.07;;;;;;;-4.11;100.00;99754.41;5034683;28;20072;-70
2022/12/13 08:03:14;;;;;;;14.80;10.77;;;;;;;-4.06;100.00;99756.72;5034485;28;20029;-68
2022/12/13 08:05:39;;;;;;;13.18;9.90;;;;;;;-4.02;100.00;99760.00;5034197;28;20464;-69
2022/12/13 08:08:07;;;;;;;13.07;8.13;;;;;;;-4.03;100.00;99766.13;5034537;28;20081;-71
2022/12/13 08:10:32;;;;;;;13.88;9.70;;;;;;;-4.03;100.00;99760.91;5034020;28;20362;-69
2022/12/13 08:13:01;;;;;;;12.67;9.63;;;;;;;-4.04;100.00;99748.84;5034036;28;20121;-70
2022/12/13 08:15:27;;;;;;;;;;;;;;;-3.96;100.00;99760.44;5034387;28;20021;-71
2022/12/13 08:17:55;;;;;;;12.43;8.50;;;;;;;-4.21;100.00;99716.06;5034377;28;19908;-69
2022/12/13 08:20:21;;;;;;;14.38;10.50;;;;;;;-4.02;100.00;99742.63;5034606;28;20051;-68
2022/12/13 08:22:55;;;;;;;12.55;9.52;;;;;;;-3.94;100.00;99739.53;5034214;28;20049;-70
2022/12/13 08:25:20;;;;;;;12.55;9.20;;;;;;;-3.90;100.00;99735.81;5016041;28;20053;-69
2022/12/13 08:27:46;;;;;;;15.97;9.33;;;;;;;-3.93;100.00;99731.63;5033604;28;20106;-70
2022/12/13 08:30:12;;;;;;;14.77;11.30;;;;;;;-3.97;100.00;99718.91;5033257;28;20441;-70
2022/12/13 08:32:37;;;;;;;16.33;10.10;;;;;;;-4.02;100.00;99729.63;5033625;28;20021;-69
2022/12/13 08:35:03;;;;;;;14.43;9.90;;;;;;;-4.09;100.00;99734.34;5033507;28;20040;-68
2022/12/13 08:37:28;;;;;;;16.03;9.90;;;;;;;-4.08;100.00;99738.59;5033387;28;20477;-69
2022/12/13 08:39:54;;;;;;;13.37;9.53;;;;;;;-4.04;100.00;99726.28;5033651;28;20040;-69
2022/12/13 08:42:19;;;;;;;15.07;10.67;;;;;;;-3.99;100.00;99731.19;5033752;28;20033;-69
2022/12/13 08:44:49;;;;;;;13.30;9.23;;;;;;;-3.93;100.00;99723.00;5033575;28;20029;-69
2022/12/13 08:47:15;;;;;;;16.70;9.93;;;;;;;-3.94;100.00;99708.31;5033689;28;20033;-71
2022/12/13 08:49:40;;;;;;;16.37;10.77;;;;;;;-3.84;100.00;99719.81;5033372;28;20075;-70
2022/12/13 08:52:06;;;;;;;16.23;10.23;;;;;;;-4.03;100.00;99690.72;5033814;28;20029;-69
2022/12/13 08:54:33;;;;;;;14.47;10.10;;;;;;;-3.90;100.00;99720.19;5033277;28;20079;-68
2022/12/13 08:56:58;;;;;;;15.95;11.18;;;;;;;-3.93;100.00;99715.19;5033736;28;20037;-69
2022/12/13 08:59:24;;;;;;;16.80;12.23;;;;;;;-4.08;100.00;99690.97;5032111;28;20021;-71
2022/12/13 09:01:50;;;;;;;15.80;10.93;;;;;;;-3.81;100.00;99722.22;5033442;28;20033;-74
2022/12/13 09:04:15;;;;;;;16.40;11.70;;;;;;;-3.78;100.00;99719.41;5033510;28;20362;-68
2022/12/13 09:06:42;;;;;;;15.37;9.87;;;;;;;-3.72;100.00;99728.63;5033327;28;20373;-70
2022/12/13 09:09:08;;;;;;;16.60;10.55;;;;;;;-3.77;100.00;99724.50;5033085;28;20518;-69
2022/12/13 09:11:33;;;;;;;13.13;9.33;;;;;;;-3.78;100.00;99727.22;5032728;28;20030;-71
2022/12/13 09:13:59;;;;;;;15.93;9.37;;;;;;;-3.76;100.00;99717.53;5032933;28;20032;-70
2022/12/13 09:16:25;;;;;;;13.43;9.57;;;;;;;-3.85;100.00;99698.16;5032970;28;20040;-71
2022/12/13 09:18:52;;;;;;;12.63;9.60;;;;;;;-3.72;100.00;99708.63;5032276;28;20049;-69
2022/12/13 09:21:20;;;;;;;18.55;11.27;;;;;;;-3.79;100.00;99718.56;5032663;28;20041;-69
2022/12/13 09:23:45;;;;;;;14.02;9.93;;;;;;;-3.75;100.00;99708.84;5033052;28;20056;-68
2022/12/13 09:26:13;;;;;;;16.53;9.43;;;;;;;-3.68;100.00;99709.28;5032747;28;20530;-69
2022/12/13 09:28:39;;;;;;;15.32;10.82;;;;;;;-3.68;100.00;99704.91;5032909;28;20040;-69
2022/12/13 09:31:13;;;;;;;16.85;10.00;;;;;;;-3.67;100.00;99690.13;5032504;28;20037;-70
2022/12/13 09:33:39;;;;;;;12.88;9.35;;;;;;;-3.63;100.00;99697.63;5032643;28;20037;-68
2022/12/13 09:36:07;;;;;;;15.48;10.18;;;;;;;-3.64;100.00;99695.97;5032547;28;20044;-68
2022/12/13 09:38:34;;;;;;;13.63;9.13;;;;;;;-3.72;100.00;99669.63;5032311;28;20457;-69
2022/12/13 09:41:15;;;;;;;16.20;10.77;;;;;;;-3.55;100.00;99691.94;5032715;28;20485;-69
2022/12/13 09:43:43;;;;;;;15.07;10.05;;;;;;;-3.57;100.00;99685.97;5032663;28;20505;-69
2022/12/13 09:46:21;;;;;;;17.25;9.45;;;;;;;-3.53;100.00;99690.88;5032409;28;20061;-71
2022/12/13 09:48:48;;;;;;;16.45;9.95;;;;;;;-3.54;100.00;99686.63;5032400;28;20108;-71
2022/12/13 09:51:14;;;;;;;14.60;10.10;;;;;;;-3.56;100.00;99680.69;5031954;28;20033;-70
2022/12/13 09:53:40;;;;;;;14.60;9.77;;;;;;;-3.58;100.00;99676.50;5032408;28;20028;-70
2022/12/13 09:56:11;;;;;;;18.67;10.77;;;;;;;-3.54;100.00;99676.22;5031336;28;20037;-70
2022/12/13 09:58:37;;;;;;;18.67;10.73;;;;;;;-3.52;100.00;99682.16;5032533;28;20033;-70
2022/12/13 10:01:05;;;;;;;19.00;11.90;;;;;;;-3.59;100.00;99667.03;5032087;28;20029;-70
2022/12/13 10:03:30;;;;;;;18.85;10.85;;;;;;;-3.72;100.00;99630.59;5032509;28;20021;-68
2022/12/13 10:06:00;;;;;;;21.87;10.70;;;;;;;-3.56;100.00;99646.00;5032290;28;20091;-70
2022/12/13 10:08:36;;;;;;;22.27;11.38;;;;;;;-3.48;100.00;99667.16;5032277;28;20032;-69
2022/12/13 10:11:02;;;;;;;17.38;11.70;;;;;;;-3.49;100.00;99655.91;5032322;28;20049;-67
2022/12/13 10:13:41;;;;;;;16.75;10.02;;;;;;;-3.58;100.00;99635.72;5032756;28;20084;-68
2022/12/13 10:16:37;;;;;;;14.32;9.88;;;;;;;-3.37;100.00;99658.66;5032910;28;20036;-68
2022/12/13 10:19:18;;;;;;;16.02;10.18;;;;;;;-3.40;100.00;99645.84;5014298;28;20056;-67
2022/12/13 10:21:47;;;;;;;17.42;10.00;;;;;;;-3.36;100.00;99648.16;5032203;28;20085;-70
2022/12/13 10:24:14;;;;;;;;;;;;;;;-3.28;100.00;99660.66;5032295;28;20041;-68
2022/12/13 10:26:40;;;;;;;14.15;8.95;;;;;;;-3.32;100.00;99649.59;5032083;28;20238;-69
2022/12/13 10:29:06;;;;;;;17.93;11.23;;;;;;;-3.24;100.00;99651.69;5014662;28;20036;-70
2022/12/13 10:31:44;;;;;;;16.50;11.60;;;;;;;-3.27;100.00;99662.31;5035529;28;20124;-69
2022/12/13 10:34:21;;;;;;;13.95;9.60;;;;;;;-3.33;100.00;99655.75;5036246;28;20331;-69
2022/12/13 10:36:47;;;;;;;12.52;9.48;;;;;;;-3.24;100.00;99652.53;5036078;28;20030;-70
2022/12/13 10:39:18;;;;;;;12.03;8.90;;;;;;;-3.18;100.00;99652.13;5035844;28;20036;-69
2022/12/13 10:41:46;;;;;;;15.35;11.20;;;;;;;-3.10;100.00;99649.00;5036065;28;20043;-68
2022/12/13 10:44:24;;;;;;;14.13;9.98;;;;;;;-3.12;99.64;99656.09;5035848;28;20033;-70
2022/12/13 10:47:09;;;;;;;15.60;10.05;;;;;;;-3.18;100.00;99651.28;5035829;28;20029;-69
2022/12/13 10:49:56;;;;;;;18.33;9.18;;;;;;;-3.30;100.00;99642.53;5035502;28;20041;-70
2022/12/13 10:52:33;;;;;;;14.95;10.02;;;;;;;-3.34;100.00;99655.84;5035683;28;20072;-72
2022/12/13 10:55:05;;;;;;;15.02;9.60;;;;;;;-3.57;100.00;99611.34;5035628;28;20029;-71
2022/12/13 10:57:32;;;;;;;15.90;10.63;;;;;;;-3.20;100.00;99655.75;5035161;28;20021;-71
2022/12/13 10:59:58;;;;;;;16.27;10.98;;;;;;;-3.17;100.00;99652.97;5035221;28;20075;-71
2022/12/13 11:02:36;;;;;;;17.13;9.73;;;;;;;-3.07;99.12;99661.00;5035516;28;20116;-70
2022/12/13 11:05:27;;;;;;;12.20;8.50;;;;;;;-3.01;99.75;99669.22;5035630;28;20167;-72
2022/12/13 11:07:56;;;;;;;15.80;9.35;;;;;;;-3.12;98.75;99658.69;5035058;28;20030;-70
2022/12/13 11:10:26;;;;;;;15.45;9.88;;;;;;;-3.12;97.38;99648.28;5035306;28;20060;-73
2022/12/13 11:13:02;;;;;;;13.30;8.70;;;;;;;-3.16;97.55;99639.00;5017408;28;20038;-73
2022/12/13 11:15:29;;;;;;;12.85;8.38;;;;;;;-3.08;97.64;99654.94;5035128;28;20033;-69
2022/12/13 11:18:01;;;;;;;13.05;9.73;;;;;;;-3.09;96.90;99637.66;5034982;28;20045;-70
2022/12/13 11:20:34;;;;;;;9.63;7.50;;;;;;;-3.12;96.16;99635.25;5017084;28;20056;-72
2022/12/13 11:23:04;;;;;;;11.63;8.35;;;;;;;-3.11;96.43;99642.13;5035225;28;20037;-68
2022/12/13 11:25:40;;;;;;;11.35;8.27;;;;;;;-3.07;95.98;99638.38;5035134;28;20083;-69
2022/12/13 11:28:11;;;;;;;11.38;7.80;;;;;;;-3.03;94.77;99628.59;5034899;28;20040;-71